Bookmark and Share
Track history (hours):
 

Bf Caroda

Last reported at 2014-Apr-21 11:09 UTC. Time now 2014-Apr-24 19:51 UTC.
Position N 35°50' W 006°01'.

Length 134 m; draft 7 m.

Type: Ship (hazmat cat A). MMSI: 304678000.

NotesDate/timePositionNaut miles runAvg speedWind from/ knotsBaromVisibWave heightAir tempDewpointWater temp
2014-Apr-21 11:09N 35°50' W 006°01'1212.1
2014-Apr-21 10:10N 35°56' W 005°48'1011.7
2014-Apr-21 09:21N 35°57' W 005°36'7 0.9
2014-Apr-21 01:33N 35°54' W 005°30'3 2.4
2014-Apr-21 00:30N 35°56' W 005°31'9 9.7
2014-Apr-20 23:33N 36°00' W 005°21'1010.0
2014-Apr-20 22:33N 36°03' W 005°09'23310.3
2014-Apr-20 00:04N 37°30' W 000°39'712.7
2014-Apr-19 23:31N 37°35' W 000°33'1212.4
2014-Apr-19 22:32N 37°45' W 000°24'4811.9
2014-Apr-19 18:30N 38°25' E 000°09'9413.0
2014-Apr-19 11:18N 39°40' E 001°22'1013.7
2014-Apr-19 10:33N 39°48' E 001°30'1613.7
2014-Apr-19 09:25N 39°60' E 001°43'1213.8
2014-Apr-19 08:33N 40°09' E 001°53'1413.9
2014-Apr-19 07:33N 40°20' E 002°04'1615.7
2014-Apr-19 06:33N 40°32' E 002°17'1514.4
2014-Apr-19 05:32N 40°44' E 002°29'1313.0
2014-Apr-19 04:33N 40°54' E 002°40'1313.4
2014-Apr-19 03:33N 41°04' E 002°51'1414.0
2014-Apr-19 02:33N 41°15' E 003°03'1414.2
2014-Apr-19 01:33N 41°26' E 003°14'1414.4
2014-Apr-19 00:33N 41°37' E 003°26'1413.7
2014-Apr-18 23:32N 41°48' E 003°38'1313.1
2014-Apr-18 22:33N 41°58' E 003°49'1414.3
2014-Apr-18 21:33N 42°09' E 004°01'1413.7
2014-Apr-18 20:34N 42°20' E 004°13'1313.4
2014-Apr-18 19:33N 42°30' E 004°24'1313.0
2014-Apr-18 18:33N 42°41' E 004°35'1414.2
2014-Apr-18 17:33N 42°52' E 004°47'1313.1
2014-Apr-18 16:33N 43°02' E 004°58'1313.1
2014-Apr-18 15:33N 43°13' E 005°08'1111.2
2014-Apr-18 14:34N 43°21' E 005°19'1 0.9
2014-Apr-18 13:32N 43°21' E 005°20'0 0.0
2014-Apr-18 12:32N 43°21' E 005°20'0 0.0
2014-Apr-18 11:31N 43°21' E 005°20'0 0.0
2014-Apr-18 10:31N 43°21' E 005°20'0 0.0
2014-Apr-18 09:33N 43°21' E 005°20'0 0.0
2014-Apr-18 07:32N 43°21' E 005°20'0 0.0
2014-Apr-18 06:32N 43°21' E 005°20'0 0.0
2014-Apr-18 05:31N 43°21' E 005°20'0 0.0
2014-Apr-18 04:31N 43°21' E 005°20'0 0.0
2014-Apr-18 03:12N 43°21' E 005°20'0 0.0
2014-Apr-18 02:33N 43°21' E 005°20'0 0.0
2014-Apr-18 01:33N 43°21' E 005°20'0 0.0
2014-Apr-18 00:32N 43°21' E 005°20'0 0.0
2014-Apr-17 23:32N 43°21' E 005°20'0 0.0
2014-Apr-17 22:31N 43°21' E 005°20'0 0.0
2014-Apr-17 21:31N 43°21' E 005°20'0 0.0
2014-Apr-17 20:31N 43°21' E 005°20'0 0.0
2014-Apr-17 19:33N 43°21' E 005°20'0 0.0
2014-Apr-17 17:32N 43°21' E 005°20'0 0.0
2014-Apr-17 16:33N 43°21' E 005°20'8 8.1
2014-Apr-17 15:33N 43°16' E 005°11'1313.1
2014-Apr-17 14:32N 43°05' E 005°01'2014.1
2014-Apr-17 13:07N 42°51' E 004°41'915.1
2014-Apr-17 12:33N 42°45' E 004°33'1413.9
2014-Apr-17 11:32N 42°36' E 004°19'1514.2
2014-Apr-17 10:30N 42°25' E 004°05'1314.3
2014-Apr-17 09:33N 42°16' E 003°52'1413.4
2014-Apr-17 08:30N 42°06' E 003°38'1415.0
2014-Apr-17 07:33N 41°56' E 003°24'1414.3
2014-Apr-17 06:33N 41°47' E 003°10'1914.4
2014-Apr-17 05:14N 41°36' E 002°49'1613.6
2014-Apr-17 04:03N 41°26' E 002°32'714.1
2014-Apr-17 03:32N 41°22' E 002°24'1111.0
2014-Apr-17 02:33N 41°19' E 002°10'2 0.2
2014-Apr-16 14:24N 41°21' E 002°10'6 6.3
2014-Apr-16 13:25N 41°19' E 002°18'1416.0
2014-Apr-16 12:33N 41°27' E 002°33'1514.8
2014-Apr-16 11:33N 41°36' E 002°49'1615.8
2014-Apr-16 10:33N 41°45' E 003°06'1414.2
2014-Apr-16 09:33N 41°57' E 003°17'2114.5
2014-Apr-16 08:04N 42°18' E 003°23'815.0
2014-Apr-16 07:33N 42°25' E 003°18'11 1.3
2014-Apr-15 23:08N 42°31' E 003°07'0 0.0
2014-Apr-15 21:16N 42°31' E 003°07'0 0.0
2014-Apr-15 20:28N 42°31' E 003°07'0 0.0
2014-Apr-15 17:24N 42°31' E 003°07'0 0.0
2014-Apr-15 16:29N 42°31' E 003°07'0 0.0
2014-Apr-15 15:32N 42°31' E 003°07'0 0.0
2014-Apr-15 14:28N 42°31' E 003°07'0 0.0
2014-Apr-14 19:33N 42°31' E 003°07'0 0.0
2014-Apr-14 15:31N 42°31' E 003°07'0 0.0
2014-Apr-14 10:33N 42°31' E 003°07'95 7.9
2014-Apr-13 22:33N 41°00' E 002°31'1716.8
2014-Apr-13 21:33N 40°47' E 002°18'1716.7
2014-Apr-13 20:33N 40°32' E 002°07'9 9.5
2014-Apr-13 19:33N 40°25' E 001°59'0 0.4
2014-Apr-13 18:33N 40°25' E 001°59'1615.6
2014-Apr-13 17:33N 40°12' E 001°47'1717.3
2014-Apr-13 16:33N 39°58' E 001°35'1817.5
2014-Apr-13 15:33N 39°43' E 001°22'14317.4
2014-Apr-13 07:21N 37°45' W 000°21'1516.0
2014-Apr-13 06:25N 37°33' W 000°31'23215.5
2014-Apr-12 15:26N 36°01' W 004°58'1618.8
2014-Apr-12 14:33N 35°58' W 005°18'1918.5
2014-Apr-12 13:31N 35°54' W 005°41'  

Dump ship's entire track history

sailing weather and tide predictions

Bf Caroda — V2CV5 — position and weather